Time;durP1;ratioP1;P1;durP2;ratioP2;P2;SDS_P1;SDS_P2;PMS_P1;PMS_P2;Temp;Humidity;BMP_temperature;BMP_pressure;BME280_temperature;BME280_humidity;BME280_pressure;Samples;Min_cycle;Max_cycle;Signal;HPM_P1;HPM_P2
2023/04/25 00:02:42;;;;;;;4.18;2.03;;;;;;;;;;5055616;28;20025;-74
2023/04/25 00:05:27;;;;;;;4.13;1.83;;;;;;;;;;5045667;28;20056;-75
2023/04/25 00:08:12;;;;;;;3.17;2.17;;;;;;;;;;5045235;28;20033;-66
2023/04/25 00:10:58;;;;;;;4.03;2.13;;;;;;;;;;5046844;28;20041;-69
2023/04/25 00:13:43;;;;;;;3.50;2.30;;;;;;;;;;5060387;28;20036;-69
2023/04/25 00:16:30;;;;;;;4.38;2.08;;;;;;;;;;5047973;28;20033;-69
2023/04/25 00:19:15;;;;;;;3.70;1.88;;;;;;;;;;5043838;28;20037;-69
2023/04/25 00:22:00;;;;;;;5.35;2.20;;;;;;;;;;5047516;28;20472;-68
2023/04/25 00:24:46;;;;;;;5.60;2.08;;;;;;;;;;5046140;28;20028;-75
2023/04/25 00:27:31;;;;;;;4.20;2.13;;;;;;;;;;5047487;28;20052;-78
2023/04/25 00:30:16;;;;;;;3.55;1.88;;;;;;;;;;5055212;28;20060;-78
2023/04/25 00:33:01;;;;;;;3.42;1.70;;;;;;;;;;5049649;28;20320;-78
2023/04/25 00:35:46;;;;;;;4.25;2.15;;;;;;;;;;5053247;28;20032;-79
2023/04/25 00:38:32;;;;;;;3.80;2.00;;;;;;;;;;5045524;28;20029;-79
2023/04/25 00:41:18;;;;;;;2.03;1.75;;;;;;;;;;5045062;28;20044;-79
2023/04/25 00:44:04;;;;;;;2.97;1.35;;;;;;;;;;5046305;28;20108;-67
2023/04/25 00:46:50;;;;;;;1.83;1.60;;;;;;;;;;5044455;28;20025;-67
2023/04/25 00:49:35;;;;;;;4.72;1.73;;;;;;;;;;5044832;28;20029;-67
2023/04/25 00:52:20;;;;;;;3.22;1.55;;;;;;;;;;5047076;28;20041;-68
2023/04/25 00:55:06;;;;;;;2.67;1.55;;;;;;;;;;5059090;28;20822;-68
2023/04/25 00:57:51;;;;;;;4.97;2.10;;;;;;;;;;5046220;28;20037;-66
2023/04/25 01:00:37;;;;;;;2.03;1.63;;;;;;;;;;5056725;28;20120;-65
2023/04/25 01:03:22;;;;;;;3.72;1.80;;;;;;;;;;5043188;28;20033;-74
2023/04/25 01:06:08;;;;;;;3.88;1.92;;;;;;;;;;5055440;28;20051;-75
2023/04/25 01:08:54;;;;;;;2.28;1.55;;;;;;;;;;5034412;28;20025;-74
2023/04/25 01:11:40;;;;;;;3.50;1.77;;;;;;;;;;5054058;28;20029;-76
2023/04/25 01:14:25;;;;;;;9.68;1.67;;;;;;;;;;5049610;28;20037;-74
2023/04/25 01:17:10;;;;;;;4.03;1.55;;;;;;;;;;5048009;28;20025;-74
2023/04/25 01:19:56;;;;;;;3.38;1.70;;;;;;;;;;5043350;28;20070;-69
2023/04/25 01:22:41;;;;;;;1.83;1.58;;;;;;;;;;5047807;28;20036;-67
2023/04/25 01:25:27;;;;;;;4.95;1.95;;;;;;;;;;5061232;28;20021;-66
2023/04/25 01:28:12;;;;;;;3.38;1.60;;;;;;;;;;5042974;28;20032;-67
2023/04/25 01:30:57;;;;;;;2.58;1.60;;;;;;;;;;5044837;28;20423;-66
2023/04/25 01:33:42;;;;;;;3.05;1.52;;;;;;;;;;5047134;28;20052;-68
2023/04/25 01:36:28;;;;;;;2.83;1.50;;;;;;;;;;5044254;28;20067;-65
2023/04/25 01:39:13;;;;;;;2.28;1.60;;;;;;;;;;5052607;28;20043;-77
2023/04/25 01:41:59;;;;;;;2.97;1.77;;;;;;;;;;5032022;28;20623;-66
2023/04/25 01:44:44;;;;;;;3.10;1.67;;;;;;;;;;5046410;28;20040;-65
2023/04/25 01:47:29;;;;;;;2.08;1.63;;;;;;;;;;5062173;28;20663;-66
2023/04/25 01:50:16;;;;;;;3.78;1.80;;;;;;;;;;5042848;28;20070;-66
2023/04/25 01:53:01;;;;;;;4.43;1.88;;;;;;;;;;5057370;28;20032;-68
2023/04/25 01:55:47;;;;;;;3.92;1.90;;;;;;;;;;5045342;28;20040;-67
2023/04/25 01:58:32;;;;;;;2.92;1.95;;;;;;;;;;5046173;28;20495;-84
2023/04/25 02:01:17;;;;;;;3.50;2.15;;;;;;;;;;5045215;28;20029;-74
2023/04/25 02:04:02;;;;;;;4.82;1.88;;;;;;;;;;5045285;28;20029;-75
2023/04/25 02:06:48;;;;;;;3.95;2.00;;;;;;;;;;5046733;28;20068;-74
2023/04/25 02:09:33;;;;;;;1.40;1.13;;;;;;;;;;5042493;28;20041;-74
2023/04/25 02:12:18;;;;;;;4.65;2.40;;;;;;;;;;5046775;28;20032;-74
2023/04/25 02:15:04;;;;;;;2.42;1.33;;;;;;;;;;5044234;28;20630;-75
2023/04/25 02:17:49;;;;;;;2.42;1.75;;;;;;;;;;5030756;28;20021;-76
2023/04/25 02:20:34;;;;;;;6.68;1.88;;;;;;;;;;5045003;28;20040;-77
2023/04/25 02:23:20;;;;;;;2.60;1.92;;;;;;;;;;5060726;28;20682;-77
2023/04/25 02:26:05;;;;;;;2.33;1.58;;;;;;;;;;5042369;28;20033;-77
2023/04/25 02:28:51;;;;;;;3.45;1.83;;;;;;;;;;5044553;28;20464;-76
2023/04/25 02:31:36;;;;;;;2.85;1.50;;;;;;;;;;5044481;28;20341;-76
2023/04/25 02:34:21;;;;;;;3.30;1.88;;;;;;;;;;5046434;28;20037;-70
2023/04/25 02:37:06;;;;;;;4.63;1.80;;;;;;;;;;5044218;28;20036;-82
2023/04/25 02:39:52;;;;;;;3.80;1.80;;;;;;;;;;5059071;28;20072;-81
2023/04/25 02:42:37;;;;;;;2.20;1.63;;;;;;;;;;5039602;28;20044;-87
2023/04/25 02:45:22;;;;;;;2.30;1.73;;;;;;;;;;5056217;28;20134;-85
2023/04/25 02:48:07;;;;;;;4.60;1.58;;;;;;;;;;5042165;28;20044;-81
2023/04/25 02:50:53;;;;;;;3.28;1.90;;;;;;;;;;5044141;28;20114;-85
2023/04/25 02:53:38;;;;;;;3.65;2.20;;;;;;;;;;5043710;28;20056;-75
2023/04/25 02:56:25;;;;;;;2.67;1.92;;;;;;;;;;5040251;28;20594;-85
2023/04/25 02:59:11;;;;;;;3.33;1.60;;;;;;;;;;5042017;28;20067;-84
2023/04/25 03:01:56;;;;;;;4.38;1.80;;;;;;;;;;5043732;28;20467;-84
2023/04/25 03:04:41;;;;;;;4.30;2.38;;;;;;;;;;5047143;28;20112;-84
2023/04/25 03:07:26;;;;;;;3.83;1.60;;;;;;;;;;5058787;28;20430;-84
2023/04/25 03:10:12;;;;;;;5.55;1.90;;;;;;;;;;5043473;28;20033;-77
2023/04/25 03:12:57;;;;;;;9.25;2.17;;;;;;;;;;5048521;28;20308;-76
2023/04/25 03:15:43;;;;;;;3.70;1.80;;;;;;;;;;5040399;28;20630;-77
2023/04/25 03:18:28;;;;;;;6.47;2.63;;;;;;;;;;5047056;28;20032;-78
2023/04/25 03:21:13;;;;;;;2.30;1.50;;;;;;;;;;5068212;28;20032;-77
2023/04/25 03:24:01;;;;;;;4.90;1.60;;;;;;;;;;5064025;28;20135;-75
2023/04/25 03:26:46;;;;;;;3.90;2.10;;;;;;;;;;5044653;28;20025;-76
2023/04/25 03:29:31;;;;;;;4.10;2.13;;;;;;;;;;5045221;28;20029;-76
2023/04/25 03:32:16;;;;;;;3.78;1.80;;;;;;;;;;5056640;28;20051;-74
2023/04/25 03:35:02;;;;;;;3.53;1.65;;;;;;;;;;5057708;28;20072;-75
2023/04/25 03:37:47;;;;;;;4.45;2.00;;;;;;;;;;5046235;28;20082;-74
2023/04/25 03:40:32;;;;;;;1.85;1.40;;;;;;;;;;5047256;28;20167;-75
2023/04/25 03:43:17;;;;;;;2.72;1.83;;;;;;;;;;5042663;28;20522;-75
2023/04/25 03:46:02;;;;;;;4.93;1.90;;;;;;;;;;5050176;28;20088;-76
2023/04/25 03:48:48;;;;;;;2.35;1.40;;;;;;;;;;5043759;28;20025;-69
2023/04/25 03:51:33;;;;;;;2.53;1.52;;;;;;;;;;5062073;28;20115;-84
2023/04/25 03:54:18;;;;;;;2.40;1.42;;;;;;;;;;5042063;28;20399;-82
2023/04/25 03:57:03;;;;;;;4.03;1.70;;;;;;;;;;5047303;28;20033;-83
2023/04/25 03:59:48;;;;;;;2.63;1.80;;;;;;;;;;5047844;28;20036;-82
2023/04/25 04:02:34;;;;;;;6.78;3.47;;;;;;;;;;5060843;28;20583;-83
2023/04/25 04:05:20;;;;;;;4.82;1.85;;;;;;;;;;5043008;28;20052;-76
2023/04/25 04:08:05;;;;;;;1.65;1.38;;;;;;;;;;5057545;28;20029;-68
2023/04/25 04:10:50;;;;;;;3.10;1.63;;;;;;;;;;5045053;28;20151;-68
2023/04/25 04:13:35;;;;;;;4.22;1.95;;;;;;;;;;5045467;28;20578;-68
2023/04/25 04:16:21;;;;;;;2.65;1.67;;;;;;;;;;5045981;28;20051;-67
2023/04/25 04:19:06;;;;;;;5.38;1.90;;;;;;;;;;5051935;28;20108;-67
2023/04/25 04:21:51;;;;;;;3.25;1.60;;;;;;;;;;5046070;28;20032;-67
2023/04/25 04:24:36;;;;;;;2.90;1.92;;;;;;;;;;5036577;28;20032;-76
2023/04/25 04:27:22;;;;;;;3.88;1.88;;;;;;;;;;5045722;28;20123;-74
2023/04/25 04:30:08;;;;;;;3.28;2.20;;;;;;;;;;5042965;28;20863;-74
2023/04/25 04:32:53;;;;;;;4.63;2.10;;;;;;;;;;5046038;28;20029;-76
2023/04/25 04:35:38;;;;;;;2.97;1.92;;;;;;;;;;5059376;28;20040;-75
2023/04/25 04:38:23;;;;;;;10.68;2.10;;;;;;;;;;5047509;28;20029;-76
2023/04/25 04:41:09;;;;;;;3.22;1.63;;;;;;;;;;5063503;28;20518;-75
2023/04/25 04:43:55;;;;;;;2.92;1.85;;;;;;;;;;5038948;28;20287;-80
2023/04/25 04:46:44;;;;;;;5.85;1.70;;;;;;;;;;5046243;28;20029;-67
2023/04/25 04:49:29;;;;;;;5.78;2.30;;;;;;;;;;5066013;28;20091;-68
2023/04/25 04:52:14;;;;;;;3.88;1.85;;;;;;;;;;5048417;28;20048;-68
2023/04/25 04:54:59;;;;;;;2.97;2.00;;;;;;;;;;5058505;28;20459;-69
2023/04/25 04:57:45;;;;;;;3.83;2.17;;;;;;;;;;5042293;28;20087;-69
2023/04/25 05:00:31;;;;;;;2.63;1.83;;;;;;;;;;5044342;28;20068;-82
2023/04/25 05:03:17;;;;;;;4.00;1.95;;;;;;;;;;5060100;28;20031;-77
2023/04/25 05:06:02;;;;;;;5.25;2.00;;;;;;;;;;5045758;28;20690;-77
2023/04/25 05:08:47;;;;;;;2.92;1.75;;;;;;;;;;5060742;28;20488;-75
2023/04/25 05:11:32;;;;;;;6.13;2.45;;;;;;;;;;5045812;28;20068;-77
2023/04/25 05:14:18;;;;;;;5.57;2.10;;;;;;;;;;5043142;28;20757;-75
2023/04/25 05:17:08;;;;;;;4.03;2.03;;;;;;;;;;5042158;28;20045;-76
2023/04/25 05:19:53;;;;;;;6.70;2.15;;;;;;;;;;5046116;28;20113;-68
2023/04/25 05:22:38;;;;;;;5.75;2.20;;;;;;;;;;5049784;28;20103;-77
2023/04/25 05:25:23;;;;;;;4.10;2.25;;;;;;;;;;5029558;28;20116;-80
2023/04/25 05:28:08;;;;;;;10.32;2.42;;;;;;;;;;5027989;28;20551;-78
2023/04/25 05:30:54;;;;;;;6.90;2.65;;;;;;;;;;5043225;28;20451;-77
2023/04/25 05:33:39;;;;;;;3.55;2.53;;;;;;;;;;5049305;28;20044;-79
2023/04/25 05:36:25;;;;;;;5.70;2.35;;;;;;;;;;5059180;28;20036;-78
2023/04/25 05:39:11;;;;;;;2.67;1.80;;;;;;;;;;5048428;28;20029;-68
2023/04/25 05:41:56;;;;;;;5.38;2.53;;;;;;;;;;5048032;28;20120;-69
2023/04/25 05:44:41;;;;;;;5.05;2.28;;;;;;;;;;5033220;28;20112;-66
2023/04/25 05:47:26;;;;;;;4.47;2.97;;;;;;;;;;5044469;28;20103;-68
2023/04/25 05:50:11;;;;;;;4.53;2.63;;;;;;;;;;5044730;28;20041;-68
2023/04/25 05:52:57;;;;;;;5.35;2.88;;;;;;;;;;5047833;28;20029;-67
2023/04/25 05:55:42;;;;;;;4.68;2.53;;;;;;;;;;5053163;28;20040;-77
2023/04/25 05:58:28;;;;;;;4.47;2.58;;;;;;;;;;5048201;28;20048;-77
2023/04/25 06:01:14;;;;;;;6.20;3.45;;;;;;;;;;5026579;28;20040;-77
2023/04/25 06:03:59;;;;;;;3.38;2.67;;;;;;;;;;5059929;28;20029;-77
2023/04/25 06:06:44;;;;;;;6.20;2.22;;;;;;;;;;5035332;28;20045;-73
2023/04/25 06:09:30;;;;;;;8.02;3.08;;;;;;;;;;5045307;28;20039;-75
2023/04/25 06:12:15;;;;;;;4.57;2.10;;;;;;;;;;5045304;28;20052;-72
2023/04/25 06:15:00;;;;;;;2.83;1.98;;;;;;;;;;5045903;28;20040;-69
2023/04/25 06:17:46;;;;;;;5.85;2.60;;;;;;;;;;5028811;28;20139;-88
2023/04/25 06:20:31;;;;;;;5.43;2.45;;;;;;;;;;5057579;28;20025;-77
2023/04/25 06:23:16;;;;;;;2.28;1.83;;;;;;;;;;5046894;28;20029;-78
2023/04/25 06:26:01;;;;;;;7.53;2.63;;;;;;;;;;5049869;28;20052;-75
2023/04/25 06:28:46;;;;;;;6.07;1.80;;;;;;;;;;5046811;28;20021;-77
2023/04/25 06:31:33;;;;;;;4.72;1.92;;;;;;;;;;5045203;28;20045;-72
2023/04/25 06:34:18;;;;;;;7.70;2.85;;;;;;;;;;5044229;28;20035;-64
2023/04/25 06:37:04;;;;;;;10.25;2.65;;;;;;;;;;5043538;28;20029;-63
2023/04/25 06:39:49;;;;;;;2.85;2.08;;;;;;;;;;5042199;28;20029;-66
2023/04/25 06:42:34;;;;;;;8.70;2.45;;;;;;;;;;5045626;28;20078;-63
2023/04/25 06:45:19;;;;;;;3.83;2.10;;;;;;;;;;5043865;28;20029;-62
2023/04/25 06:48:05;;;;;;;6.53;2.55;;;;;;;;;;5045174;28;20442;-63
2023/04/25 06:50:50;;;;;;;3.30;2.05;;;;;;;;;;5045874;28;20094;-70
2023/04/25 06:53:36;;;;;;;5.78;1.92;;;;;;;;;;5046349;28;20120;-74
2023/04/25 06:56:21;;;;;;;5.70;2.33;;;;;;;;;;5045004;28;20120;-68
2023/04/25 06:59:06;;;;;;;3.03;1.95;;;;;;;;;;5050159;28;20029;-70
2023/04/25 07:01:51;;;;;;;3.42;2.30;;;;;;;;;;5038780;28;20544;-69
2023/04/25 07:04:37;;;;;;;2.53;1.85;;;;;;;;;;5038522;28;20102;-70
2023/04/25 07:07:22;;;;;;;4.22;2.95;;;;;;;;;;5044228;28;20078;-69
2023/04/25 07:10:07;;;;;;;4.30;2.53;;;;;;;;;;5048734;28;20115;-64
2023/04/25 07:12:53;;;;;;;4.10;2.75;;;;;;;;;;5035089;28;20029;-70
2023/04/25 07:15:38;;;;;;;4.93;2.40;;;;;;;;;;5048777;28;20035;-70
2023/04/25 07:18:23;;;;;;;16.00;5.57;;;;;;;;;;5050564;28;20068;-72
2023/04/25 07:21:08;;;;;;;10.27;3.28;;;;;;;;;;5047249;28;20116;-73
2023/04/25 07:23:53;;;;;;;4.70;2.60;;;;;;;;;;5043892;28;20041;-70
2023/04/25 07:26:39;;;;;;;5.60;3.53;;;;;;;;;;5047580;28;20029;-70
2023/04/25 07:29:24;;;;;;;8.00;2.83;;;;;;;;;;5048960;28;20029;-67
2023/04/25 07:32:11;;;;;;;6.93;2.30;;;;;;;;;;5048619;28;20460;-68
2023/04/25 07:34:57;;;;;;;12.15;2.25;;;;;;;;;;5045231;28;20116;-65
2023/04/25 07:37:42;;;;;;;2.58;2.38;;;;;;;;;;5048693;28;20025;-67
2023/04/25 07:40:27;;;;;;;4.28;2.90;;;;;;;;;;5046182;28;20037;-66
2023/04/25 07:43:16;;;;;;;4.15;2.38;;;;;;;;;;5046892;28;20040;-66
2023/04/25 07:46:02;;;;;;;3.33;2.30;;;;;;;;;;5044822;28;20028;-78
2023/04/25 07:48:47;;;;;;;3.58;2.33;;;;;;;;;;5029426;28;20020;-66
2023/04/25 07:51:32;;;;;;;3.75;2.63;;;;;;;;;;5063535;28;20017;-71
2023/04/25 07:54:18;;;;;;;5.85;3.30;;;;;;;;;;5062828;28;20024;-72
2023/04/25 07:57:03;;;;;;;4.07;2.67;;;;;;;;;;5032126;28;20121;-76
2023/04/25 07:59:48;;;;;;;6.25;3.05;;;;;;;;;;5049055;28;20025;-75
2023/04/25 08:02:33;;;;;;;6.40;3.50;;;;;;;;;;5056030;28;20021;-74
2023/04/25 08:05:19;;;;;;;6.65;4.18;;;;;;;;;;5048565;28;20013;-70
2023/04/25 08:08:06;;;;;;;5.38;2.80;;;;;;;;;;5060766;28;20592;-78
2023/04/25 08:10:51;;;;;;;10.30;3.30;;;;;;;;;;5047349;28;20021;-80
2023/04/25 08:13:36;;;;;;;4.47;2.75;;;;;;;;;;5042900;28;20056;-83
2023/04/25 08:16:22;;;;;;;5.93;3.05;;;;;;;;;;5044317;28;20040;-78
2023/04/25 08:19:07;;;;;;;11.40;3.58;;;;;;;;;;5051312;28;20025;-81
2023/04/25 08:21:52;;;;;;;4.07;2.50;;;;;;;;;;5050076;28;20025;-87
2023/04/25 08:24:37;;;;;;;9.00;3.20;;;;;;;;;;5046262;28;20087;-75
2023/04/25 08:27:23;;;;;;;7.70;2.63;;;;;;;;;;5046408;28;20044;-70
2023/04/25 08:30:08;;;;;;;4.07;2.38;;;;;;;;;;5033094;28;20131;-74
2023/04/25 08:32:54;;;;;;;7.72;2.75;;;;;;;;;;5047362;28;20079;-73
2023/04/25 08:35:39;;;;;;;5.82;2.53;;;;;;;;;;5052301;28;20123;-74
2023/04/25 08:38:24;;;;;;;10.82;2.65;;;;;;;;;;5047629;28;20052;-73
2023/04/25 08:41:10;;;;;;;5.10;3.00;;;;;;;;;;5047426;28;20025;-75
2023/04/25 08:43:57;;;;;;;6.63;2.67;;;;;;;;;;5043651;28;20036;-62
2023/04/25 08:46:42;;;;;;;5.18;2.50;;;;;;;;;;5047456;28;20040;-69
2023/04/25 08:49:28;;;;;;;5.90;3.00;;;;;;;;;;5047514;28;20024;-70
2023/04/25 08:52:13;;;;;;;6.03;3.00;;;;;;;;;;5046060;28;20288;-67
2023/04/25 08:55:01;;;;;;;7.63;3.58;;;;;;;;;;5043105;28;20565;-71
2023/04/25 08:57:46;;;;;;;6.13;3.03;;;;;;;;;;5049947;28;20067;-69
2023/04/25 09:00:32;;;;;;;7.03;3.00;;;;;;;;;;5045613;28;20032;-75
2023/04/25 09:03:17;;;;;;;5.85;2.90;;;;;;;;;;5046088;28;20033;-72
2023/04/25 09:06:03;;;;;;;6.38;3.13;;;;;;;;;;5047452;28;20052;-74
2023/04/25 09:08:49;;;;;;;5.50;3.33;;;;;;;;;;5046729;28;20468;-75
2023/04/25 09:11:35;;;;;;;5.63;2.92;;;;;;;;;;5044377;28;20523;-72
2023/04/25 09:14:22;;;;;;;4.60;3.03;;;;;;;;;;5037140;28;20028;-74
2023/04/25 09:17:07;;;;;;;7.40;2.88;;;;;;;;;;5047336;28;20055;-71
2023/04/25 09:19:52;;;;;;;4.38;2.90;;;;;;;;;;5047268;28;20032;-75
2023/04/25 09:22:38;;;;;;;3.85;2.35;;;;;;;;;;5039876;28;20542;-69
2023/04/25 09:25:24;;;;;;;5.22;3.38;;;;;;;;;;5043136;28;20270;-69
2023/04/25 09:28:10;;;;;;;5.40;3.33;;;;;;;;;;5059892;28;20028;-71
2023/04/25 09:30:59;;;;;;;7.10;3.20;;;;;;;;;;5045970;28;20028;-69
2023/04/25 09:33:45;;;;;;;7.65;3.47;;;;;;;;;;5045939;28;20036;-69
2023/04/25 09:36:30;;;;;;;5.82;3.50;;;;;;;;;;5045406;28;20101;-70
2023/04/25 09:39:16;;;;;;;6.88;3.42;;;;;;;;;;5050015;28;20018;-74
2023/04/25 09:42:02;;;;;;;6.28;3.33;;;;;;;;;;5048077;28;20028;-77
2023/04/25 09:44:47;;;;;;;4.65;2.70;;;;;;;;;;5045566;28;20192;-72
2023/04/25 09:47:37;;;;;;;6.53;3.58;;;;;;;;;;5046094;28;20021;-71
2023/04/25 09:50:24;;;;;;;;;;;;;;;;;;5039834;28;20548;-74
2023/04/25 09:53:10;;;;;;;4.00;2.42;;;;;;;;;;5058442;28;19913;-72
2023/04/25 09:55:56;;;;;;;4.53;2.55;;;;;;;;;;5043216;28;20535;-74
2023/04/25 09:58:42;;;;;;;4.82;2.67;;;;;;;;;;5046510;28;20017;-74
2023/04/25 10:01:27;;;;;;;4.68;2.63;;;;;;;;;;5042576;28;20033;-71
2023/04/25 10:04:13;;;;;;;5.00;2.63;;;;;;;;;;5045536;28;20522;-72
2023/04/25 10:06:59;;;;;;;2.85;1.83;;;;;;;;;;5042899;28;20068;-75
2023/04/25 10:09:46;;;;;;;3.10;2.15;;;;;;;;;;5051958;28;20017;-76
2023/04/25 10:12:35;;;;;;;3.33;1.60;;;;;;;;;;5043563;28;20091;-77
2023/04/25 10:15:21;;;;;;;2.00;1.60;;;;;;;;;;5058928;28;20648;-62
2023/04/25 10:18:07;;;;;;;5.55;1.80;;;;;;;;;;5052065;28;20105;-74
2023/04/25 10:20:53;;;;;;;8.98;1.88;;;;;;;;;;5046301;28;20035;-75
2023/04/25 10:23:39;;;;;;;7.30;2.88;;;;;;;;;;5044742;28;20037;-76
2023/04/25 10:26:25;;;;;;;3.03;1.40;;;;;;;;;;5059754;28;20036;-75
2023/04/25 10:29:10;;;;;;;2.75;2.03;;;;;;;;;;5045251;28;20037;-74
2023/04/25 10:31:56;;;;;;;2.97;1.83;;;;;;;;;;5043658;28;20111;-75
2023/04/25 10:34:42;;;;;;;1.95;1.08;;;;;;;;;;5044486;28;20511;-77
2023/04/25 10:37:30;;;;;;;1.27;1.08;;;;;;;;;;5046067;28;20033;-75
2023/04/25 10:40:21;;;;;;;1.45;1.25;;;;;;;;;;5045298;28;20036;-77
2023/04/25 10:43:25;;;;;;;1.73;1.10;;;;;;;;;;5047150;28;20025;-77
2023/04/25 10:46:15;;;;;;;3.33;1.08;;;;;;;;;;5033782;28;20028;-76
2023/04/25 10:49:01;;;;;;;1.60;0.95;;;;;;;;;;5034265;28;20021;-75
2023/04/25 10:51:47;;;;;;;1.80;1.08;;;;;;;;;;5048007;28;20422;-75
2023/04/25 10:54:32;;;;;;;2.08;1.10;;;;;;;;;;5046086;28;20063;-63
2023/04/25 10:57:37;;;;;;;2.75;1.15;;;;;;;;;;5043386;28;20116;-63
2023/04/25 11:00:26;;;;;;;2.45;1.00;;;;;;;;;;5046458;28;20039;-64
2023/04/25 11:03:16;;;;;;;2.53;1.87;;;;;;;;;;5049255;28;20045;-64
2023/04/25 11:06:02;;;;;;;2.80;1.52;;;;;;;;;;5049772;28;20044;-65
2023/04/25 11:08:48;;;;;;;1.92;1.48;;;;;;;;;;5048563;28;20428;-75
2023/04/25 11:11:36;;;;;;;3.47;2.10;;;;;;;;;;5044435;28;20028;-73
2023/04/25 11:14:21;;;;;;;1.80;1.63;;;;;;;;;;5052349;28;20075;-73
2023/04/25 11:17:07;;;;;;;3.67;1.42;;;;;;;;;;5048564;28;20036;-74
2023/04/25 11:19:53;;;;;;;2.22;2.03;;;;;;;;;;5045351;28;20440;-76
2023/04/25 11:22:42;;;;;;;2.60;2.20;;;;;;;;;;5046342;28;20103;-72
2023/04/25 11:25:28;;;;;;;1.98;1.45;;;;;;;;;;5048753;28;20032;-74
2023/04/25 11:28:20;;;;;;;2.70;1.90;;;;;;;;;;5042512;28;20032;-63
2023/04/25 11:31:05;;;;;;;2.90;1.90;;;;;;;;;;5047180;28;20025;-64
2023/04/25 11:33:52;;;;;;;3.35;2.15;;;;;;;;;;5045481;28;20021;-67
2023/04/25 11:36:38;;;;;;;2.70;1.95;;;;;;;;;;5058506;28;20049;-64
2023/04/25 11:39:24;;;;;;;5.38;2.53;;;;;;;;;;5047024;28;20025;-66
2023/04/25 11:42:09;;;;;;;2.35;1.70;;;;;;;;;;5040647;28;20021;-65
2023/04/25 11:44:54;;;;;;;3.10;1.63;;;;;;;;;;5051079;28;20327;-80
2023/04/25 11:47:40;;;;;;;2.53;1.45;;;;;;;;;;5052594;28;20471;-62
2023/04/25 11:50:27;;;;;;;3.55;2.03;;;;;;;;;;5046573;28;20095;-65
2023/04/25 11:53:13;;;;;;;3.00;1.70;;;;;;;;;;5047285;28;20594;-64
2023/04/25 11:55:58;;;;;;;3.53;1.90;;;;;;;;;;5045619;28;20563;-62
2023/04/25 11:58:57;;;;;;;1.90;1.55;;;;;;;;;;5044300;28;20063;-65
2023/04/25 12:01:47;;;;;;;2.78;1.80;;;;;;;;;;5047489;28;20025;-64
2023/04/25 12:04:32;;;;;;;3.20;1.58;;;;;;;;;;5047764;28;20495;-76
2023/04/25 12:07:21;;;;;;;4.43;2.30;;;;;;;;;;5060455;28;20512;-69
2023/04/25 12:10:07;;;;;;;3.13;1.98;;;;;;;;;;5049366;28;20025;-68
2023/04/25 12:12:53;;;;;;;3.38;2.08;;;;;;;;;;5033783;28;20475;-75
2023/04/25 12:15:40;;;;;;;2.85;1.95;;;;;;;;;;5046884;28;20033;-71
2023/04/25 12:18:28;;;;;;;2.60;2.10;;;;;;;;;;5056291;28;20029;-69
2023/04/25 12:21:13;;;;;;;4.05;2.30;;;;;;;;;;5044103;28;20025;-70
2023/04/25 12:24:13;;;;;;;3.30;2.50;;;;;;;;;;5047188;28;20033;-74
2023/04/25 12:26:59;;;;;;;5.97;2.55;;;;;;;;;;5046595;28;20016;-76
2023/04/25 12:29:52;;;;;;;4.30;2.65;;;;;;;;;;5045629;28;20037;-76
2023/04/25 12:32:37;;;;;;;6.07;3.40;;;;;;;;;;5048522;28;20031;-76
2023/04/25 12:35:23;;;;;;;9.07;3.10;;;;;;;;;;5059479;28;20052;-78
2023/04/25 12:38:09;;;;;;;6.70;4.30;;;;;;;;;;5047149;28;20112;-76
2023/04/25 12:40:54;;;;;;;4.63;2.95;;;;;;;;;;5047503;28;20057;-67
2023/04/25 12:43:39;;;;;;;6.07;3.17;;;;;;;;;;5046645;28;20506;-76
2023/04/25 12:46:25;;;;;;;4.40;2.90;;;;;;;;;;5055002;28;20063;-77
2023/04/25 12:49:10;;;;;;;5.05;3.13;;;;;;;;;;5047306;28;20091;-77
2023/04/25 12:51:55;;;;;;;4.32;2.50;;;;;;;;;;5049017;28;20048;-75
2023/04/25 12:54:40;;;;;;;5.68;3.75;;;;;;;;;;5047318;28;20518;-75
2023/04/25 12:57:26;;;;;;;6.18;3.65;;;;;;;;;;5045503;28;20114;-79
2023/04/25 13:00:14;;;;;;;6.90;3.40;;;;;;;;;;5043901;28;20430;-75
2023/04/25 13:02:59;;;;;;;7.75;3.78;;;;;;;;;;5046759;28;20036;-75
2023/04/25 13:05:45;;;;;;;7.75;3.65;;;;;;;;;;5046976;28;20057;-73
2023/04/25 13:08:30;;;;;;;4.97;3.40;;;;;;;;;;5044469;28;20058;-74
2023/04/25 13:11:15;;;;;;;4.68;3.17;;;;;;;;;;5047223;28;20035;-74
2023/04/25 13:14:01;;;;;;;6.45;3.40;;;;;;;;;;5036093;28;20040;-75
2023/04/25 13:16:46;;;;;;;8.45;3.72;;;;;;;;;;5048397;28;20036;-75
2023/04/25 13:19:32;;;;;;;7.65;3.90;;;;;;;;;;5047262;28;20037;-72
2023/04/25 13:22:19;;;;;;;11.10;3.28;;;;;;;;;;5057755;28;20363;-76
2023/04/25 13:25:06;;;;;;;4.80;2.92;;;;;;;;;;5044579;28;20499;-82
2023/04/25 13:27:51;;;;;;;5.20;3.03;;;;;;;;;;5047275;28;20021;-76
2023/04/25 13:30:36;;;;;;;5.03;3.33;;;;;;;;;;5047581;28;20027;-78
2023/04/25 13:33:22;;;;;;;7.10;3.05;;;;;;;;;;5048101;28;20033;-79
2023/04/25 13:36:07;;;;;;;7.53;3.67;;;;;;;;;;5046053;28;20047;-64
2023/04/25 13:38:52;;;;;;;9.27;4.57;;;;;;;;;;5034839;28;20533;-67
2023/04/25 13:41:37;;;;;;;19.77;6.25;;;;;;;;;;5037411;28;20064;-67
2023/04/25 13:44:23;;;;;;;7.47;3.70;;;;;;;;;;5043744;28;20115;-69
2023/04/25 13:47:11;;;;;;;18.92;5.13;;;;;;;;;;5043191;28;20025;-68
2023/04/25 13:49:56;;;;;;;7.93;4.70;;;;;;;;;;5047003;28;20032;-67
2023/04/25 13:52:42;;;;;;;18.85;5.25;;;;;;;;;;5048168;28;20045;-68
2023/04/25 13:55:27;;;;;;;18.20;6.00;;;;;;;;;;5050684;28;20033;-74
2023/04/25 13:58:12;;;;;;;14.93;6.28;;;;;;;;;;5042941;28;20029;-68
2023/04/25 14:00:57;;;;;;;12.23;4.70;;;;;;;;;;5039163;28;20018;-68
2023/04/25 14:03:43;;;;;;;8.35;4.63;;;;;;;;;;5031868;28;20056;-70
2023/04/25 14:06:28;;;;;;;9.13;5.00;;;;;;;;;;5041428;28;20072;-68
2023/04/25 14:09:15;;;;;;;6.88;4.95;;;;;;;;;;5046556;28;20033;-68
2023/04/25 14:12:00;;;;;;;8.50;4.82;;;;;;;;;;5053961;28;20121;-66
2023/04/25 14:14:45;;;;;;;6.93;4.45;;;;;;;;;;5043002;28;20045;-77
2023/04/25 14:17:30;;;;;;;10.77;4.75;;;;;;;;;;5043074;28;20040;-65
2023/04/25 14:20:20;;;;;;;7.82;4.03;;;;;;;;;;5043419;28;20037;-65
2023/04/25 14:23:05;;;;;;;7.00;4.40;;;;;;;;;;5041096;28;20036;-65
2023/04/25 14:25:50;;;;;;;8.32;4.18;;;;;;;;;;5052336;28;20029;-67
2023/04/25 14:28:35;;;;;;;7.15;4.32;;;;;;;;;;5045612;28;20024;-64
2023/04/25 14:31:21;;;;;;;6.75;4.22;;;;;;;;;;5043662;28;20037;-64
2023/04/25 14:34:07;;;;;;;7.30;4.40;;;;;;;;;;5042475;28;20041;-76
2023/04/25 14:36:52;;;;;;;8.77;4.40;;;;;;;;;;5047423;28;20052;-81
2023/04/25 14:39:37;;;;;;;6.18;3.53;;;;;;;;;;5045726;28;20369;-80
2023/04/25 14:42:22;;;;;;;8.35;4.00;;;;;;;;;;5047879;28;20404;-77
2023/04/25 14:45:08;;;;;;;6.85;3.75;;;;;;;;;;5039930;28;20071;-76
2023/04/25 14:47:53;;;;;;;6.90;3.95;;;;;;;;;;5031807;28;20033;-76
2023/04/25 14:50:38;;;;;;;9.05;5.43;;;;;;;;;;5045303;28;20032;-69
2023/04/25 14:53:24;;;;;;;5.30;3.45;;;;;;;;;;5045243;28;20033;-78
2023/04/25 14:56:09;;;;;;;6.78;3.10;;;;;;;;;;5058753;28;20029;-72
2023/04/25 14:58:54;;;;;;;4.75;3.38;;;;;;;;;;5052883;28;20024;-76
2023/04/25 15:01:40;;;;;;;7.35;2.70;;;;;;;;;;5044730;28;20071;-75
2023/04/25 15:04:25;;;;;;;9.73;3.05;;;;;;;;;;5044042;28;20030;-74
2023/04/25 15:07:10;;;;;;;4.32;2.63;;;;;;;;;;5031797;28;20043;-80
2023/04/25 15:09:56;;;;;;;7.40;3.10;;;;;;;;;;5047047;28;20472;-79
2023/04/25 15:12:42;;;;;;;19.42;3.63;;;;;;;;;;5038142;28;20033;-68
2023/04/25 15:15:27;;;;;;;5.13;3.47;;;;;;;;;;5044110;28;20045;-70
2023/04/25 15:18:12;;;;;;;7.38;3.65;;;;;;;;;;5041138;28;20021;-71
2023/04/25 15:20:58;;;;;;;6.03;3.13;;;;;;;;;;5053108;28;20021;-69
2023/04/25 15:23:43;;;;;;;10.70;3.28;;;;;;;;;;5045394;28;20028;-71
2023/04/25 15:26:28;;;;;;;5.82;3.13;;;;;;;;;;5041608;28;20037;-61
2023/04/25 15:29:14;;;;;;;7.63;4.07;;;;;;;;;;5052058;28;20045;-63
2023/04/25 15:31:59;;;;;;;5.00;3.20;;;;;;;;;;5048178;28;20016;-62
2023/04/25 15:34:44;;;;;;;4.85;3.00;;;;;;;;;;5055718;28;20403;-62
2023/04/25 15:37:30;;;;;;;5.85;3.85;;;;;;;;;;5057131;28;20025;-64
2023/04/25 15:40:15;;;;;;;5.60;3.35;;;;;;;;;;5047499;28;20423;-67
2023/04/25 15:43:01;;;;;;;8.00;3.42;;;;;;;;;;5033622;28;20025;-65
2023/04/25 15:45:46;;;;;;;6.53;3.83;;;;;;;;;;5047386;28;20048;-68
2023/04/25 15:48:32;;;;;;;7.50;4.05;;;;;;;;;;5063485;28;20392;-67
2023/04/25 15:51:17;;;;;;;4.32;3.15;;;;;;;;;;5049179;28;20375;-69
2023/04/25 15:54:02;;;;;;;5.93;3.72;;;;;;;;;;5047991;28;20033;-69
2023/04/25 15:56:48;;;;;;;4.32;3.10;;;;;;;;;;5048373;28;20029;-71
2023/04/25 15:59:33;;;;;;;6.85;3.80;;;;;;;;;;5046323;28;20036;-71
2023/04/25 16:02:18;;;;;;;6.18;3.80;;;;;;;;;;5054866;28;20476;-70
2023/04/25 16:05:04;;;;;;;6.28;3.95;;;;;;;;;;5048449;28;20029;-69
2023/04/25 16:07:49;;;;;;;5.40;3.72;;;;;;;;;;5047077;28;20028;-63
2023/04/25 16:10:35;;;;;;;10.82;6.13;;;;;;;;;;5048211;28;20032;-64
2023/04/25 16:13:20;;;;;;;6.70;4.10;;;;;;;;;;5046618;28;20029;-65
2023/04/25 16:16:06;;;;;;;8.75;4.75;;;;;;;;;;5054731;28;20115;-64
2023/04/25 16:18:51;;;;;;;12.38;4.10;;;;;;;;;;5044378;28;20033;-63
2023/04/25 16:21:36;;;;;;;7.15;4.05;;;;;;;;;;5048689;28;20025;-76
2023/04/25 16:24:22;;;;;;;8.57;3.92;;;;;;;;;;5047845;28;20522;-71
2023/04/25 16:27:07;;;;;;;8.68;3.75;;;;;;;;;;5045505;28;20388;-71
2023/04/25 16:29:52;;;;;;;13.40;3.65;;;;;;;;;;5064173;28;20132;-76
2023/04/25 16:32:39;;;;;;;7.10;3.80;;;;;;;;;;5047091;28;20025;-75
2023/04/25 16:35:24;;;;;;;7.15;3.70;;;;;;;;;;5051839;28;20132;-73